createdAt,value
2019-01-08T00:00:33.624Z,8.20
2019-01-08T00:02:35.259Z,7.70
2019-01-08T00:04:36.909Z,6.90
2019-01-08T00:06:38.783Z,6.90
2019-01-08T00:08:40.448Z,7.50
2019-01-08T00:10:42.083Z,7.43
2019-01-08T00:12:43.723Z,7.90
2019-01-08T00:14:45.383Z,6.53
2019-01-08T00:16:47.011Z,8.27
2019-01-08T00:18:48.652Z,6.30
2019-01-08T00:20:50.297Z,6.30
2019-01-08T00:22:51.940Z,5.47
2019-01-08T00:24:53.824Z,4.80
2019-01-08T00:26:55.703Z,5.10
2019-01-08T00:28:57.813Z,4.83
2019-01-08T00:30:59.695Z,4.40
2019-01-08T00:33:01.580Z,5.00
2019-01-08T00:35:04.227Z,4.50
2019-01-08T00:37:05.864Z,4.50
2019-01-08T00:39:07.504Z,4.57
2019-01-08T00:41:09.152Z,4.77
2019-01-08T00:43:11.020Z,3.17
2019-01-08T00:45:12.668Z,4.13
2019-01-08T00:47:14.307Z,4.50
2019-01-08T00:49:15.947Z,4.40
2019-01-08T00:51:17.603Z,3.00
2019-01-08T00:53:19.479Z,4.07
2019-01-08T00:55:21.132Z,4.33
2019-01-08T00:57:22.996Z,4.20
2019-01-08T00:59:24.871Z,3.83
2019-01-08T01:01:26.843Z,3.93
2019-01-08T01:03:28.488Z,3.43
2019-01-08T01:05:30.128Z,3.90
2019-01-08T01:07:31.767Z,4.27
2019-01-08T01:09:33.656Z,4.80
2019-01-08T01:11:35.532Z,3.90
2019-01-08T01:13:37.176Z,4.20
2019-01-08T01:15:38.820Z,4.27
2019-01-08T01:17:40.457Z,3.67
2019-01-08T01:19:42.331Z,4.73
2019-01-08T01:21:44.211Z,4.10
2019-01-08T01:23:45.848Z,5.00
2019-01-08T01:25:47.503Z,4.63
2019-01-08T01:27:49.144Z,4.30
2019-01-08T01:29:50.780Z,4.13
2019-01-08T01:31:52.420Z,4.23
2019-01-08T01:33:54.060Z,3.83
2019-01-08T01:35:55.708Z,4.23
2019-01-08T01:37:57.340Z,4.87
2019-01-08T01:39:58.979Z,5.00
2019-01-08T01:42:00.650Z,4.93
2019-01-08T01:44:02.519Z,4.73
2019-01-08T01:46:04.403Z,4.73
2019-01-08T01:48:06.271Z,4.77
2019-01-08T01:50:07.923Z,4.90
2019-01-08T01:52:09.582Z,5.43
2019-01-08T01:54:11.223Z,5.17
2019-01-08T01:56:12.872Z,4.07
2019-01-08T01:58:14.503Z,4.70
2019-01-08T02:00:16.376Z,4.40
2019-01-08T02:02:18.259Z,4.30
2019-01-08T02:04:20.147Z,5.13
2019-01-08T02:06:21.795Z,5.20
2019-01-08T02:08:23.663Z,5.00
2019-01-08T02:10:25.300Z,5.13
2019-01-08T02:12:26.949Z,5.60
2019-01-08T02:14:28.584Z,5.33
2019-01-08T02:16:30.238Z,3.97
2019-01-08T02:18:32.099Z,4.67
2019-01-08T02:20:33.739Z,4.07
2019-01-08T02:22:35.387Z,4.97
2019-01-08T02:24:37.023Z,5.83
2019-01-08T02:26:38.672Z,5.20
2019-01-08T02:28:40.315Z,5.77
2019-01-08T02:30:42.189Z,5.67
2019-01-08T02:32:43.836Z,6.53
2019-01-08T02:34:45.714Z,5.07
2019-01-08T02:36:47.359Z,3.93
2019-01-08T02:38:49.000Z,5.03
2019-01-08T02:40:50.636Z,5.77
2019-01-08T02:42:52.284Z,5.37
2019-01-08T02:44:53.920Z,5.40
2019-01-08T02:46:55.569Z,5.17
2019-01-08T02:48:57.209Z,5.20
2019-01-08T02:50:58.852Z,5.40
2019-01-08T02:53:00.500Z,4.10
2019-01-08T02:55:02.145Z,4.30
2019-01-08T02:57:04.031Z,4.87
2019-01-08T02:59:05.671Z,4.77
2019-01-08T03:01:07.312Z,4.70
2019-01-08T03:03:09.218Z,3.93
2019-01-08T03:05:11.092Z,5.30
2019-01-08T03:07:12.967Z,4.73
2019-01-08T03:09:14.605Z,5.53
2019-01-08T03:11:16.243Z,4.20
2019-01-08T03:13:18.129Z,6.83
2019-01-08T03:15:20.003Z,5.67
2019-01-08T03:17:21.884Z,5.57
2019-01-08T03:19:23.524Z,5.33
2019-01-08T03:21:25.160Z,5.80
2019-01-08T03:23:26.795Z,5.83
2019-01-08T03:25:28.904Z,5.47
2019-01-08T03:27:30.551Z,4.43
2019-01-08T03:29:33.730Z,5.93
2019-01-08T03:31:35.904Z,5.47
2019-01-08T03:33:37.555Z,4.83
2019-01-08T03:35:39.198Z,5.53
2019-01-08T03:37:40.850Z,4.33
2019-01-08T03:39:42.484Z,5.87
2019-01-08T03:41:44.124Z,6.40
2019-01-08T03:43:46.008Z,5.17
2019-01-08T03:45:47.639Z,4.83
2019-01-08T03:47:49.283Z,5.33
2019-01-08T03:49:51.156Z,4.70
2019-01-08T03:51:52.903Z,5.10
2019-01-08T03:53:54.560Z,4.63
2019-01-08T03:55:56.206Z,4.23
2019-01-08T03:57:57.848Z,4.90
2019-01-08T03:59:59.495Z,6.00
2019-01-08T04:02:01.131Z,5.97
2019-01-08T04:04:02.799Z,4.90
2019-01-08T04:06:04.675Z,5.53
2019-01-08T04:08:06.332Z,4.23
2019-01-08T04:10:07.970Z,4.10
2019-01-08T04:12:09.608Z,3.20
2019-01-08T04:14:11.255Z,2.40
2019-01-08T04:16:12.901Z,2.60
2019-01-08T04:18:14.549Z,3.17
2019-01-08T04:20:16.179Z,2.90
2019-01-08T04:22:17.823Z,3.87
2019-01-08T04:24:19.468Z,3.10
2019-01-08T04:26:21.103Z,3.57
2019-01-08T04:28:22.755Z,3.73
2019-01-08T04:30:24.397Z,3.33
2019-01-08T04:32:26.035Z,3.60
2019-01-08T04:34:27.927Z,3.10
2019-01-08T04:36:29.804Z,3.80
2019-01-08T04:38:31.457Z,3.23
2019-01-08T04:40:33.096Z,3.70
2019-01-08T04:42:34.740Z,3.33
2019-01-08T04:44:36.628Z,3.40
2019-01-08T04:46:38.263Z,3.07
2019-01-08T04:48:39.903Z,3.40
2019-01-08T04:50:41.548Z,3.10
2019-01-08T04:52:43.192Z,3.37
2019-01-08T04:54:44.843Z,4.67
2019-01-08T04:56:46.714Z,4.07
2019-01-08T04:58:48.995Z,4.13
2019-01-08T05:00:50.639Z,3.17
2019-01-08T05:02:52.283Z,4.43
2019-01-08T05:04:53.929Z,5.27
2019-01-08T05:06:55.563Z,3.90
2019-01-08T05:08:57.687Z,4.50
2019-01-08T05:10:59.560Z,3.70
2019-01-08T05:13:01.443Z,4.60
2019-01-08T05:15:03.236Z,4.67
2019-01-08T05:17:05.112Z,4.93
2019-01-08T05:19:06.756Z,4.80
2019-01-08T05:21:08.395Z,3.37
2019-01-08T05:23:10.042Z,4.37
2019-01-08T05:25:11.915Z,4.50
2019-01-08T05:27:13.555Z,4.90
2019-01-08T05:29:15.439Z,3.03
2019-01-08T05:31:17.076Z,5.10
2019-01-08T05:33:18.951Z,4.27
2019-01-08T05:35:20.599Z,5.10
2019-01-08T05:37:22.232Z,3.87
2019-01-08T05:39:24.111Z,5.43
2019-01-08T05:41:25.752Z,5.00
2019-01-08T05:43:27.403Z,4.27
2019-01-08T05:45:29.074Z,4.80
2019-01-08T05:47:39.348Z,5.50
2019-01-08T05:49:41.224Z,4.90
2019-01-08T05:51:43.124Z,3.93
2019-01-08T05:53:44.784Z,3.80
2019-01-08T05:55:46.427Z,4.53
2019-01-08T05:57:48.064Z,3.83
2019-01-08T05:59:49.712Z,4.70
2019-01-08T06:01:51.355Z,4.30
2019-01-08T06:03:53.480Z,3.43
2019-01-08T06:05:55.355Z,4.83
2019-01-08T06:07:57.232Z,4.80
2019-01-08T06:09:59.116Z,4.80
2019-01-08T06:12:00.751Z,3.13
2019-01-08T06:14:02.392Z,3.83
2019-01-08T06:16:04.032Z,4.10
2019-01-08T06:18:05.908Z,4.63
2019-01-08T06:20:07.579Z,4.00
2019-01-08T06:22:09.212Z,4.20
2019-01-08T06:24:10.856Z,4.50
2019-01-08T06:26:12.504Z,4.33
2019-01-08T06:28:14.144Z,3.53
2019-01-08T06:30:15.807Z,3.20
2019-01-08T06:32:17.448Z,3.57
2019-01-08T06:34:19.087Z,4.00
2019-01-08T06:36:20.735Z,4.33
2019-01-08T06:38:22.376Z,4.63
2019-01-08T06:40:24.279Z,3.73
2019-01-08T06:42:25.911Z,3.77
2019-01-08T06:44:27.548Z,3.23
2019-01-08T06:46:29.196Z,3.60
2019-01-08T06:48:30.832Z,3.40
2019-01-08T06:50:32.483Z,4.23
2019-01-08T06:52:34.364Z,4.33
2019-01-08T06:54:36.007Z,3.60
2019-01-08T06:56:37.660Z,4.73
2019-01-08T06:58:39.539Z,3.53
2019-01-08T07:00:41.446Z,4.23
2019-01-08T07:02:43.319Z,4.13
2019-01-08T07:04:45.195Z,3.20
2019-01-08T07:06:47.072Z,3.87
2019-01-08T07:08:48.774Z,5.60
2019-01-08T07:10:50.716Z,4.07
2019-01-08T07:12:52.363Z,4.00
2019-01-08T07:14:54.004Z,4.23
2019-01-08T07:16:55.643Z,3.83
2019-01-08T07:18:57.523Z,4.03
2019-01-08T07:20:59.164Z,4.57
2019-01-08T07:23:00.811Z,4.90
2019-01-08T07:25:02.448Z,3.60
2019-01-08T07:27:04.338Z,3.70
2019-01-08T07:29:06.212Z,4.20
2019-01-08T07:31:07.848Z,4.70
2019-01-08T07:33:09.493Z,5.00
2019-01-08T07:35:11.372Z,3.97
2019-01-08T07:37:13.276Z,3.83
2019-01-08T07:39:14.912Z,4.33
2019-01-08T07:41:16.792Z,4.60
2019-01-08T07:43:18.439Z,5.37
2019-01-08T07:45:20.343Z,4.10
2019-01-08T07:47:22.071Z,4.97
2019-01-08T07:49:23.708Z,3.87
2019-01-08T07:51:25.356Z,3.37
2019-01-08T07:53:27.008Z,3.70
2019-01-08T07:55:28.892Z,4.07
2019-01-08T07:57:30.779Z,4.10
2019-01-08T07:59:32.417Z,4.57
2019-01-08T08:01:34.053Z,4.10
2019-01-08T08:03:35.707Z,3.60
2019-01-08T08:05:37.373Z,3.93
2019-01-08T08:07:39.007Z,5.03
2019-01-08T08:09:40.648Z,3.93
2019-01-08T08:11:42.284Z,4.40
2019-01-08T08:13:43.932Z,3.60
2019-01-08T08:15:45.809Z,5.67
2019-01-08T08:17:47.689Z,4.30
2019-01-08T08:19:49.571Z,4.77
2019-01-08T08:21:51.448Z,4.97
2019-01-08T08:23:53.344Z,4.40
2019-01-08T08:25:54.998Z,3.40
2019-01-08T08:27:56.920Z,4.20
2019-01-08T08:29:58.800Z,2.90
2019-01-08T08:32:00.681Z,4.83
2019-01-08T08:34:02.564Z,5.00
2019-01-08T08:36:04.439Z,3.80
2019-01-08T08:38:06.324Z,3.60
2019-01-08T08:40:08.200Z,4.47
2019-01-08T08:42:09.835Z,3.60
2019-01-08T08:44:11.724Z,4.00
2019-01-08T08:46:13.604Z,3.80
2019-01-08T08:48:15.488Z,4.43
2019-01-08T08:50:17.373Z,4.47
2019-01-08T08:52:19.019Z,4.77
2019-01-08T08:54:20.664Z,5.10
2019-01-08T08:56:22.308Z,5.37
2019-01-08T08:58:24.191Z,4.30
2019-01-08T09:00:26.067Z,3.37
2019-01-08T09:02:27.935Z,5.33
2019-01-08T09:04:29.584Z,4.07
2019-01-08T09:06:31.224Z,4.30
2019-01-08T09:08:33.116Z,6.97
2019-01-08T09:10:34.787Z,4.07
2019-01-08T09:12:36.670Z,3.93
2019-01-08T09:14:38.311Z,3.70
2019-01-08T09:16:40.196Z,3.53
2019-01-08T09:18:42.336Z,3.27
2019-01-08T09:20:44.204Z,3.73
2019-01-08T09:22:46.068Z,3.80
2019-01-08T09:24:47.719Z,3.30
2019-01-08T09:26:49.595Z,4.33
2019-01-08T09:28:51.246Z,3.90
2019-01-08T09:30:52.887Z,4.00
2019-01-08T09:32:54.518Z,3.87
2019-01-08T09:34:56.627Z,3.73
2019-01-08T09:36:58.511Z,2.80
2019-01-08T09:39:00.153Z,4.23
2019-01-08T09:41:01.791Z,3.33
2019-01-08T09:43:03.431Z,3.70
2019-01-08T09:45:06.011Z,3.57
2019-01-08T09:47:07.660Z,3.50
2019-01-08T09:49:09.304Z,2.90
2019-01-08T09:51:10.943Z,3.23
2019-01-08T09:53:12.587Z,3.57
2019-01-08T09:55:14.238Z,3.13
2019-01-08T09:57:15.875Z,3.33
2019-01-08T09:59:17.526Z,3.40
2019-01-08T10:01:23.739Z,3.30
2019-01-08T10:03:22.716Z,3.43
2019-01-08T10:05:24.603Z,3.67
2019-01-08T10:07:26.479Z,3.43
2019-01-08T10:09:28.128Z,3.27
2019-01-08T10:11:29.999Z,4.37
2019-01-08T10:13:31.635Z,5.27
2019-01-08T10:15:33.284Z,4.60
2019-01-08T10:17:34.927Z,4.40
2019-01-08T10:19:36.580Z,4.63
2019-01-08T10:21:38.215Z,5.00
2019-01-08T10:23:39.856Z,4.20
2019-01-08T10:25:41.511Z,4.40
2019-01-08T10:27:43.151Z,4.10
2019-01-08T10:29:44.791Z,4.87
2019-01-08T10:31:46.755Z,4.50
2019-01-08T10:33:48.623Z,6.20
2019-01-08T10:35:50.376Z,4.20
2019-01-08T10:37:52.248Z,4.27
2019-01-08T10:39:54.127Z,5.37
2019-01-08T10:41:55.764Z,5.93
2019-01-08T10:43:57.399Z,4.57
2019-01-08T10:45:59.288Z,5.97
2019-01-08T10:48:00.937Z,4.90
2019-01-08T10:50:02.644Z,4.47
2019-01-08T10:52:04.288Z,5.00
2019-01-08T10:54:06.160Z,4.80
2019-01-08T10:56:07.804Z,5.53
2019-01-08T10:58:09.445Z,4.20
2019-01-08T11:00:11.098Z,4.73
2019-01-08T11:02:12.976Z,4.93
2019-01-08T11:04:14.859Z,5.20
2019-01-08T11:06:16.503Z,5.33
2019-01-08T11:08:18.140Z,4.03
2019-01-08T11:10:20.124Z,4.80
2019-01-08T11:12:21.760Z,5.27
2019-01-08T11:14:23.399Z,6.13
2019-01-08T11:16:25.044Z,5.30
2019-01-08T11:18:26.921Z,5.63
2019-01-08T11:20:28.571Z,4.90
2019-01-08T11:22:30.431Z,5.30
2019-01-08T11:24:32.076Z,4.97
2019-01-08T11:26:33.751Z,5.17
2019-01-08T11:28:35.387Z,4.80
2019-01-08T11:30:37.044Z,5.07
2019-01-08T11:32:38.915Z,4.33
2019-01-08T11:34:40.560Z,4.53
2019-01-08T11:36:42.204Z,3.30
2019-01-08T11:38:43.844Z,3.90
2019-01-08T11:40:45.479Z,4.77
2019-01-08T11:42:47.124Z,3.80
2019-01-08T11:44:48.769Z,4.30
2019-01-08T11:46:50.415Z,5.10
2019-01-08T11:48:52.052Z,4.33
2019-01-08T11:50:53.937Z,4.73
2019-01-08T11:52:55.584Z,4.57
2019-01-08T11:54:57.227Z,4.77
2019-01-08T11:56:58.880Z,5.20
2019-01-08T11:59:00.755Z,4.90
2019-01-08T12:01:02.631Z,3.60
2019-01-08T12:03:04.275Z,6.17
2019-01-08T12:05:05.903Z,6.00
2019-01-08T12:07:07.791Z,5.80
2019-01-08T12:09:09.436Z,6.00
2019-01-08T12:11:11.328Z,5.30
2019-01-08T12:13:13.776Z,6.20
2019-01-08T12:15:15.416Z,7.27
2019-01-08T12:17:17.300Z,5.70
2019-01-08T12:19:19.173Z,6.23
2019-01-08T12:21:20.825Z,5.97
2019-01-08T12:23:22.459Z,6.00
2019-01-08T12:25:24.096Z,5.27
2019-01-08T12:27:25.752Z,6.10
2019-01-08T12:29:27.627Z,4.63
2019-01-08T12:31:29.277Z,7.67
2019-01-08T12:33:30.916Z,5.87
2019-01-08T12:35:32.788Z,5.33
2019-01-08T12:37:34.435Z,5.47
2019-01-08T12:39:36.317Z,6.47
2019-01-08T12:41:37.971Z,5.33
2019-01-08T12:43:39.849Z,6.30
2019-01-08T12:45:41.500Z,6.83
2019-01-08T12:47:43.152Z,5.87
2019-01-08T12:49:44.796Z,5.70
2019-01-08T12:51:46.628Z,5.70
2019-01-08T12:53:48.518Z,5.50
2019-01-08T12:55:50.183Z,5.70
2019-01-08T12:57:51.895Z,5.83
2019-01-08T12:59:53.532Z,5.10
2019-01-08T13:01:55.192Z,6.50
2019-01-08T13:03:56.824Z,5.97
2019-01-08T13:05:58.459Z,5.53
2019-01-08T13:08:00.113Z,6.20
2019-01-08T13:10:01.750Z,5.07
2019-01-08T13:12:03.657Z,5.03
2019-01-08T13:14:05.356Z,4.70
2019-01-08T13:16:07.272Z,4.70
2019-01-08T13:18:08.920Z,4.70
2019-01-08T13:20:10.564Z,4.53
2019-01-08T13:22:12.439Z,4.80
2019-01-08T13:24:14.091Z,4.70
2019-01-08T13:26:15.952Z,4.97
2019-01-08T13:28:17.608Z,5.67
2019-01-08T13:30:19.245Z,4.50
2019-01-08T13:32:23.303Z,5.60
2019-01-08T13:34:24.432Z,4.57
2019-01-08T13:36:26.072Z,5.03
2019-01-08T13:38:27.715Z,5.20
2019-01-08T13:40:29.357Z,5.30
2019-01-08T13:42:30.992Z,7.07
2019-01-08T13:44:32.644Z,6.30
2019-01-08T13:46:34.764Z,4.90
2019-01-08T13:48:36.414Z,5.33
2019-01-08T13:50:38.051Z,5.07
2019-01-08T13:52:39.700Z,5.90
2019-01-08T13:54:41.348Z,6.20
2019-01-08T13:56:42.984Z,5.27
2019-01-08T13:58:44.638Z,5.23
2019-01-08T14:00:46.287Z,6.60
2019-01-08T14:02:47.928Z,6.00
2019-01-08T14:04:49.584Z,5.33
2019-01-08T14:06:51.220Z,6.20
2019-01-08T14:08:52.863Z,6.50
2019-01-08T14:10:56.619Z,6.30
2019-01-08T14:12:58.075Z,6.90
2019-01-08T14:14:59.720Z,6.63
2019-01-08T14:17:01.361Z,6.47
2019-01-08T14:19:03.244Z,4.73
2019-01-08T14:21:04.879Z,4.70
2019-01-08T14:23:06.528Z,4.90
2019-01-08T14:25:08.164Z,4.43
2019-01-08T14:27:11.899Z,4.40
2019-01-08T14:29:13.356Z,4.30
2019-01-08T14:31:14.997Z,3.40
2019-01-08T14:33:16.652Z,4.17
2019-01-08T14:35:18.288Z,4.50
2019-01-08T14:37:19.927Z,3.80
2019-01-08T14:39:21.580Z,3.80
2019-01-08T14:41:23.700Z,4.53
2019-01-08T14:43:25.360Z,5.30
2019-01-08T14:45:27.003Z,6.10
2019-01-08T14:47:28.651Z,5.43
2019-01-08T14:49:30.303Z,5.70
2019-01-08T14:51:31.932Z,4.90
2019-01-08T14:53:33.583Z,5.53
2019-01-08T14:55:35.223Z,4.93
2019-01-08T14:57:36.855Z,5.17
2019-01-08T14:59:38.500Z,4.73
2019-01-08T15:01:40.913Z,3.77
2019-01-08T15:03:42.804Z,4.23
2019-01-08T15:05:44.445Z,4.87
2019-01-08T15:07:46.321Z,3.87
2019-01-08T15:09:48.212Z,4.50
2019-01-08T15:11:49.851Z,4.87
2019-01-08T15:13:51.503Z,5.30
2019-01-08T15:15:53.148Z,5.13
2019-01-08T15:17:54.783Z,7.17
2019-01-08T15:19:56.683Z,6.73
2019-01-08T15:21:58.337Z,5.60
2019-01-08T15:24:00.227Z,5.17
2019-01-08T15:26:01.868Z,5.70
2019-01-08T15:28:03.567Z,7.47
2019-01-08T15:30:07.060Z,4.73
2019-01-08T15:32:08.932Z,4.60
2019-01-08T15:34:10.575Z,5.47
2019-01-08T15:36:12.212Z,5.80
2019-01-08T15:38:14.088Z,4.00
2019-01-08T15:40:15.740Z,3.80
2019-01-08T15:42:17.612Z,5.93
2019-01-08T15:44:19.496Z,5.57
2019-01-08T15:46:21.127Z,6.40
2019-01-08T15:48:22.767Z,5.83
2019-01-08T15:50:24.413Z,6.40
2019-01-08T15:52:26.063Z,4.30
2019-01-08T15:54:27.943Z,6.00
2019-01-08T15:56:29.597Z,5.80
2019-01-08T15:58:31.475Z,6.30
2019-01-08T16:00:33.360Z,5.20
2019-01-08T16:02:35.059Z,6.00
2019-01-08T16:04:36.695Z,6.37
2019-01-08T16:06:38.352Z,4.93
2019-01-08T16:08:40.223Z,6.67
2019-01-08T16:10:41.875Z,4.90
2019-01-08T16:12:43.750Z,6.10
2019-01-08T16:14:45.376Z,5.30
2019-01-08T16:16:47.023Z,5.53
2019-01-08T16:18:48.898Z,4.87
2019-01-08T16:20:50.547Z,4.93
2019-01-08T16:22:52.196Z,3.50
2019-01-08T16:24:54.071Z,3.57
2019-01-08T16:26:55.743Z,4.63
2019-01-08T16:28:57.391Z,4.00
2019-01-08T16:30:59.027Z,3.30
2019-01-08T16:33:00.675Z,3.50
2019-01-08T16:35:02.316Z,3.73
2019-01-08T16:37:03.963Z,4.00
2019-01-08T16:39:06.548Z,3.37
2019-01-08T16:41:08.427Z,3.50
2019-01-08T16:43:10.316Z,3.87
2019-01-08T16:45:11.948Z,4.80
2019-01-08T16:47:13.596Z,4.43
2019-01-08T16:49:15.477Z,5.27
2019-01-08T16:51:17.352Z,4.50
2019-01-08T16:53:19.239Z,4.80
2019-01-08T16:55:21.136Z,4.90
2019-01-08T16:57:22.776Z,5.40
2019-01-08T16:59:24.420Z,3.47
2019-01-08T17:01:26.074Z,4.40
2019-01-08T17:03:27.940Z,4.50
2019-01-08T17:05:29.807Z,3.70
2019-01-08T17:07:31.444Z,3.87
2019-01-08T17:09:33.315Z,3.60
2019-01-08T17:11:34.960Z,3.50
2019-01-08T17:13:36.600Z,3.93
2019-01-08T17:15:38.472Z,3.37
2019-01-08T17:17:40.356Z,3.07
2019-01-08T17:19:41.992Z,3.40
2019-01-08T17:21:43.640Z,4.10
2019-01-08T17:23:45.518Z,3.53
2019-01-08T17:25:48.060Z,3.97
2019-01-08T17:27:50.004Z,2.87
2019-01-08T17:29:51.886Z,3.90
2019-01-08T17:31:53.531Z,3.33
2019-01-08T17:33:55.164Z,3.60
2019-01-08T17:35:56.804Z,3.47
2019-01-08T17:37:58.456Z,3.03
2019-01-08T17:40:00.140Z,3.03
2019-01-08T17:42:01.940Z,3.10
2019-01-08T17:44:03.591Z,2.90
2019-01-08T17:46:05.471Z,3.37
2019-01-08T17:48:07.360Z,3.07
2019-01-08T17:50:09.008Z,3.03
2019-01-08T17:52:10.664Z,3.17
2019-01-08T17:54:12.313Z,2.90
2019-01-08T17:56:13.946Z,2.93
2019-01-08T17:58:32.594Z,2.97
2019-01-08T18:00:34.234Z,2.23
2019-01-08T18:02:35.884Z,2.97
2019-01-08T18:04:37.527Z,3.30
2019-01-08T18:06:39.165Z,2.70
2019-01-08T18:08:40.824Z,2.40
2019-01-08T18:10:42.463Z,3.37
2019-01-08T18:12:44.115Z,2.40
2019-01-08T18:14:45.756Z,2.50
2019-01-08T18:16:47.655Z,4.37
2019-01-08T18:18:49.308Z,2.47
2019-01-08T18:20:50.943Z,2.90
2019-01-08T18:22:52.595Z,2.53
2019-01-08T18:24:54.235Z,2.80
2019-01-08T18:26:55.876Z,2.80
2019-01-08T18:28:57.522Z,2.00
2019-01-08T18:30:59.176Z,2.70
2019-01-08T18:33:00.803Z,2.40
2019-01-08T18:35:02.453Z,2.63
2019-01-08T18:37:04.091Z,2.67
2019-01-08T18:39:06.307Z,2.50
2019-01-08T18:41:07.944Z,2.20
2019-01-08T18:43:14.193Z,2.50
2019-01-08T18:45:13.130Z,3.10
2019-01-08T18:47:14.757Z,2.80
2019-01-08T18:49:16.399Z,2.70
2019-01-08T18:51:18.039Z,2.80
2019-01-08T18:53:19.692Z,2.40
2019-01-08T18:55:21.323Z,2.13
2019-01-08T18:57:22.972Z,2.53
2019-01-08T18:59:24.611Z,3.07
2019-01-08T19:01:26.475Z,3.00
2019-01-08T19:03:28.121Z,3.00
2019-01-08T19:05:29.996Z,2.60
2019-01-08T19:07:31.631Z,3.80
2019-01-08T19:09:37.135Z,2.77
2019-01-08T19:11:38.784Z,2.80
2019-01-08T19:13:40.427Z,2.30
2019-01-08T19:15:42.072Z,2.60
2019-01-08T19:17:43.711Z,3.00
2019-01-08T19:19:45.595Z,2.97
2019-01-08T19:21:47.468Z,2.60
2019-01-08T19:23:49.351Z,3.70
2019-01-08T19:25:50.992Z,2.40
2019-01-08T19:27:52.632Z,2.80
2019-01-08T19:29:54.276Z,2.93
2019-01-08T19:31:55.915Z,3.53
2019-01-08T19:33:57.805Z,2.33
2019-01-08T19:35:59.441Z,3.23
2019-01-08T19:38:01.312Z,3.13
2019-01-08T19:40:03.164Z,2.90
2019-01-08T19:42:04.813Z,3.03
2019-01-08T19:44:06.455Z,3.33
2019-01-08T19:46:08.096Z,3.23
2019-01-08T19:48:09.732Z,4.03
2019-01-08T19:50:11.384Z,2.73
2019-01-08T19:52:13.264Z,3.33
2019-01-08T19:54:14.916Z,2.67
2019-01-08T19:56:16.563Z,2.70
2019-01-08T19:58:18.200Z,2.67
2019-01-08T20:00:19.847Z,2.67
2019-01-08T20:02:21.484Z,3.17
2019-01-08T20:04:23.132Z,3.83
2019-01-08T20:06:24.772Z,3.77
2019-01-08T20:08:26.409Z,2.60
2019-01-08T20:10:28.059Z,3.67
2019-01-08T20:12:29.707Z,3.77
2019-01-08T20:14:32.331Z,3.20
2019-01-08T20:16:33.970Z,3.67
2019-01-08T20:18:35.830Z,3.70
2019-01-08T20:20:37.479Z,3.23
2019-01-08T20:22:39.116Z,3.20
2019-01-08T20:24:40.764Z,3.20
2019-01-08T20:26:42.640Z,2.63
2019-01-08T20:28:45.129Z,3.20
2019-01-08T20:30:46.934Z,3.00
2019-01-08T20:32:48.563Z,3.20
2019-01-08T20:34:50.232Z,3.57
2019-01-08T20:36:52.107Z,2.90
2019-01-08T20:38:53.751Z,2.63
2019-01-08T20:40:55.412Z,3.43
2019-01-08T20:42:57.055Z,2.90
2019-01-08T20:44:58.705Z,2.90
2019-01-08T20:47:00.344Z,3.00
2019-01-08T20:49:01.983Z,2.80
2019-01-08T20:51:03.871Z,2.70
2019-01-08T20:53:06.040Z,3.30
2019-01-08T20:55:07.924Z,2.80
2019-01-08T20:57:09.618Z,3.17
2019-01-08T20:59:11.576Z,3.30
2019-01-08T21:01:13.224Z,3.10
2019-01-08T21:03:14.864Z,2.87
2019-01-08T21:05:16.519Z,2.53
2019-01-08T21:07:18.429Z,3.33
2019-01-08T21:09:20.072Z,3.10
2019-01-08T21:11:21.719Z,2.57
2019-01-08T21:13:23.360Z,2.83
2019-01-08T21:15:25.231Z,2.87
2019-01-08T21:17:26.879Z,3.40
2019-01-08T21:19:28.520Z,3.03
2019-01-08T21:21:30.168Z,3.80
2019-01-08T21:23:31.832Z,3.10
2019-01-08T21:25:33.512Z,3.27
2019-01-08T21:27:35.168Z,3.00
2019-01-08T21:29:37.036Z,3.13
2019-01-08T21:31:39.228Z,3.27
2019-01-08T21:33:41.104Z,3.10
2019-01-08T21:35:43.021Z,3.50
2019-01-08T21:37:45.805Z,3.93
2019-01-08T21:39:47.503Z,2.73
2019-01-08T21:41:49.148Z,3.33
2019-01-08T21:43:51.043Z,3.77
2019-01-08T21:45:52.699Z,2.83
2019-01-08T21:47:54.347Z,3.70
2019-01-08T21:49:56.051Z,3.43
2019-01-08T21:51:57.728Z,3.07
2019-01-08T21:53:59.363Z,2.33
2019-01-08T21:56:01.002Z,2.90
2019-01-08T21:58:02.645Z,3.50
2019-01-08T22:00:04.654Z,3.70
2019-01-08T22:02:06.304Z,3.30
2019-01-08T22:04:07.944Z,3.33
2019-01-08T22:06:09.570Z,3.10
2019-01-08T22:08:11.472Z,3.57
2019-01-08T22:10:13.111Z,3.40
2019-01-08T22:12:14.759Z,3.80
2019-01-08T22:14:16.400Z,3.30
2019-01-08T22:16:18.051Z,2.77
2019-01-08T22:18:19.691Z,3.17
2019-01-08T22:20:22.741Z,3.73
2019-01-08T22:22:24.816Z,2.77
2019-01-08T22:24:26.443Z,3.10
2019-01-08T22:26:28.099Z,3.00
2019-01-08T22:28:29.971Z,2.70
2019-01-08T22:30:31.608Z,2.60
2019-01-08T22:32:33.279Z,2.63
2019-01-08T22:34:34.927Z,2.80
2019-01-08T22:36:36.867Z,3.10
2019-01-08T22:38:38.748Z,3.00
2019-01-08T22:40:40.387Z,2.30
2019-01-08T22:42:42.035Z,2.53
2019-01-08T22:44:43.920Z,2.60
2019-01-08T22:46:45.600Z,3.30
2019-01-08T22:48:47.475Z,3.23
2019-01-08T22:50:49.116Z,2.73
2019-01-08T22:52:50.788Z,3.80
2019-01-08T22:54:52.439Z,3.33
2019-01-08T22:56:54.109Z,3.63
2019-01-08T22:58:56.236Z,3.10
2019-01-08T23:01:19.056Z,3.30
2019-01-08T23:03:21.000Z,4.80
2019-01-08T23:05:22.739Z,4.23
2019-01-08T23:07:24.379Z,3.00
2019-01-08T23:09:26.649Z,2.93
2019-01-08T23:11:28.284Z,3.40
2019-01-08T23:13:30.036Z,3.00
2019-01-08T23:15:31.671Z,4.03
2019-01-08T23:17:33.319Z,4.40
2019-01-08T23:19:35.199Z,2.70
2019-01-08T23:21:36.872Z,2.60
2019-01-08T23:23:38.511Z,3.13
2019-01-08T23:25:40.631Z,3.50
2019-01-08T23:27:42.271Z,3.33
2019-01-08T23:29:43.915Z,3.60
2019-01-08T23:31:45.556Z,3.00
2019-01-08T23:33:47.443Z,2.60
2019-01-08T23:35:49.312Z,3.57
2019-01-08T23:37:50.967Z,2.47
2019-01-08T23:39:52.801Z,3.40
2019-01-08T23:41:54.439Z,3.33
2019-01-08T23:43:56.319Z,3.17
2019-01-08T23:45:58.059Z,3.67
2019-01-08T23:47:59.712Z,3.20
2019-01-08T23:50:01.344Z,2.87
2019-01-08T23:52:08.044Z,3.57
2019-01-08T23:54:09.692Z,3.00
2019-01-08T23:56:11.334Z,3.17
2019-01-08T23:58:12.983Z,2.83
